Time;durP1;ratioP1;P1;durP2;ratioP2;P2;SDS_P1;SDS_P2;PMS_P1;PMS_P2;Temp;Humidity;BMP_temperature;BMP_pressure;BME280_temperature;BME280_humidity;BME280_pressure;Samples;Min_cycle;Max_cycle;Signal;HPM_P1;HPM_P2
2023/11/07 00:02:05;;;;;;;3.95;2.20;;;;;;;9.50;64.69;95129.31;5090136;28;20477;-70
2023/11/07 00:04:31;;;;;;;5.15;2.30;;;;;;;9.31;65.02;95130.69;5085111;28;20027;-69
2023/11/07 00:06:58;;;;;;;4.13;2.05;;;;;;;9.11;64.54;95090.66;5106339;28;20019;-69
2023/11/07 00:09:24;;;;;;;4.78;2.50;;;;;;;9.28;64.89;95130.09;5090035;28;20470;-69
2023/11/07 00:11:49;;;;;;;4.07;2.05;;;;;;;9.36;64.96;95144.13;5106678;28;20102;-69
2023/11/07 00:14:15;;;;;;;6.50;2.70;;;;;;;9.29;65.05;95142.09;5088522;28;20041;-69
2023/11/07 00:16:41;;;;;;;8.73;2.85;;;;;;;9.04;65.49;95136.06;5089927;28;20027;-69
2023/11/07 00:19:07;;;;;;;7.22;2.60;;;;;;;9.13;65.23;95155.31;5107069;28;20038;-69
2023/11/07 00:21:33;;;;;;;3.45;2.10;;;;;;;9.19;65.48;95157.47;5089399;28;20089;-69
2023/11/07 00:23:59;;;;;;;5.40;2.25;;;;;;;9.05;66.16;95155.03;5106198;28;20508;-69
2023/11/07 00:26:24;;;;;;;6.65;2.35;;;;;;;8.86;65.92;95129.59;5106196;28;20035;-70
2023/11/07 00:28:49;;;;;;;6.85;2.25;;;;;;;8.99;66.25;95156.31;5089203;28;20100;-69
2023/11/07 00:31:15;;;;;;;6.97;2.35;;;;;;;8.82;66.07;95136.78;5089023;28;20523;-69
2023/11/07 00:33:40;;;;;;;7.78;2.20;;;;;;;8.82;66.27;95152.31;5104098;28;20032;-69
2023/11/07 00:36:06;;;;;;;6.88;2.22;;;;;;;8.69;66.91;95147.19;5106817;28;20485;-69
2023/11/07 00:38:31;;;;;;;6.85;2.40;;;;;;;8.58;67.96;95151.44;5105541;28;20084;-69
2023/11/07 00:40:57;;;;;;;5.03;2.28;;;;;;;8.67;67.64;95153.41;5105442;28;20028;-69
2023/11/07 00:43:22;;;;;;;8.38;2.97;;;;;;;8.57;67.79;95157.56;5106904;28;20075;-69
2023/11/07 00:45:48;;;;;;;8.45;3.63;;;;;;;8.58;67.53;95154.03;5070949;28;20891;-69
2023/11/07 00:48:13;;;;;;;8.80;3.78;;;;;;;8.31;68.24;95116.16;5070944;28;20027;-69
2023/11/07 00:50:38;;;;;;;7.63;3.47;;;;;;;8.63;67.70;95146.78;5106267;28;20459;-69
2023/11/07 00:53:04;;;;;;;8.18;3.25;;;;;;;8.68;67.79;95166.22;5105766;28;20031;-69
2023/11/07 00:55:29;;;;;;;7.32;3.85;;;;;;;8.64;67.59;95161.41;5105823;28;20032;-69
2023/11/07 00:57:55;;;;;;;7.13;3.38;;;;;;;8.61;68.05;95171.94;5090150;28;20020;-69
2023/11/07 01:00:21;;;;;;;4.47;3.25;;;;;;;8.47;68.89;95173.75;5088366;28;20429;-70
2023/11/07 01:02:47;;;;;;;5.88;2.40;;;;;;;8.60;67.90;95168.53;5086123;28;20508;-69
2023/11/07 01:05:13;;;;;;;8.68;3.10;;;;;;;8.46;67.55;95150.53;5106614;28;20418;-69
2023/11/07 01:07:39;;;;;;;6.18;2.08;;;;;;;8.60;67.43;95167.72;5104996;28;20051;-69
2023/11/07 01:10:08;;;;;;;7.60;2.33;;;;;;;8.72;66.84;95172.06;5106048;27;20047;-69
2023/11/07 01:12:33;;;;;;;5.50;2.10;;;;;;;8.71;67.09;95183.31;5104832;28;20028;-69
2023/11/07 01:14:59;;;;;;;7.80;3.40;;;;;;;8.80;66.45;95180.09;5088042;28;20094;-69
2023/11/07 01:17:24;;;;;;;4.90;3.00;;;;;;;8.72;67.73;95182.41;5105957;28;20024;-69
2023/11/07 01:19:50;;;;;;;4.78;2.25;;;;;;;8.50;68.18;95178.72;5072261;28;20028;-69
2023/11/07 01:22:15;;;;;;;5.30;2.53;;;;;;;8.37;68.25;95177.84;5072579;28;20133;-69
2023/11/07 01:24:41;;;;;;;8.35;2.80;;;;;;;8.46;68.14;95184.19;5104014;28;20044;-69
2023/11/07 01:27:07;;;;;;;5.93;2.83;;;;;;;8.26;68.47;95159.63;5088682;28;20039;-69
2023/11/07 01:29:32;;;;;;;5.97;2.10;;;;;;;8.31;68.94;95188.63;5085912;28;20024;-69
2023/11/07 01:31:57;;;;;;;8.30;3.53;;;;;;;8.01;68.12;95155.28;5107432;28;20024;-69
2023/11/07 01:34:23;;;;;;;5.47;2.65;;;;;;;8.03;68.90;95200.03;5108284;28;20028;-69
2023/11/07 01:36:48;;;;;;;3.38;2.03;;;;;;;7.95;69.97;95197.09;5111214;28;20037;-69
2023/11/07 01:39:14;;;;;;;5.68;1.90;;;;;;;7.81;69.15;95182.50;5109751;28;20040;-69
2023/11/07 01:41:39;;;;;;;5.68;2.38;;;;;;;8.07;68.82;95191.09;5109684;28;20026;-69
2023/11/07 01:44:05;;;;;;;4.57;2.25;;;;;;;8.25;68.26;95202.81;5091406;28;20559;-69
2023/11/07 01:46:30;;;;;;;5.70;2.13;;;;;;;8.06;68.56;95185.09;5110004;28;20028;-69
2023/11/07 01:48:56;;;;;;;6.47;2.25;;;;;;;8.11;68.42;95199.47;5092120;28;20036;-69
2023/11/07 01:51:23;;;;;;;5.35;2.42;;;;;;;8.13;68.53;95202.81;5109752;28;20031;-69
2023/11/07 01:53:48;;;;;;;5.55;2.20;;;;;;;8.18;68.16;95203.31;5107723;28;20052;-69
2023/11/07 01:56:14;;;;;;;5.88;2.55;;;;;;;8.21;68.50;95187.59;5092266;28;20026;-69
2023/11/07 01:58:39;;;;;;;6.80;2.75;;;;;;;8.09;69.08;95199.59;5074546;28;20031;-69
2023/11/07 02:01:05;;;;;;;8.85;2.83;;;;;;;8.00;69.49;95195.06;5092154;28;20034;-69
2023/11/07 02:03:30;;;;;;;8.65;2.90;;;;;;;8.09;69.23;95197.00;5108932;28;20089;-69
2023/11/07 02:05:56;;;;;;;5.47;2.53;;;;;;;8.03;69.50;95189.66;5089912;28;20031;-69
2023/11/07 02:08:27;;;;;;;8.98;2.72;;;;;;;7.81;69.62;95187.66;5111300;27;20505;-69
2023/11/07 02:10:53;;;;;;;6.65;2.55;;;;;;;7.98;69.72;95192.56;5108820;28;20027;-69
2023/11/07 02:13:18;;;;;;;7.57;2.65;;;;;;;7.83;69.54;95188.41;5091454;28;20034;-69
2023/11/07 02:15:44;;;;;;;5.50;1.90;;;;;;;8.06;69.54;95200.63;5090213;28;20417;-69
2023/11/07 02:18:09;;;;;;;6.22;2.05;;;;;;;7.98;69.27;95197.72;5092301;28;20077;-69
2023/11/07 02:20:38;;;;;;;4.10;2.22;;;;;;;7.76;69.54;95189.72;5092157;28;20031;-69
2023/11/07 02:23:08;;;;;;;7.32;2.50;;;;;;;7.93;69.30;95192.03;5091295;28;20038;-69
2023/11/07 02:25:33;;;;;;;8.20;2.50;;;;;;;7.69;69.63;95206.56;5106305;28;20027;-69
2023/11/07 02:27:59;;;;;;;4.78;2.30;;;;;;;7.41;70.39;95172.19;5093334;28;20097;-69
2023/11/07 02:30:25;;;;;;;4.05;2.15;;;;;;;7.53;70.65;95209.34;5073708;28;20034;-69
2023/11/07 02:32:50;;;;;;;5.25;2.70;;;;;;;7.31;70.69;95205.53;5107496;28;20024;-69
2023/11/07 02:35:16;;;;;;;9.25;2.53;;;;;;;7.29;70.18;95202.19;5090367;28;20561;-69
2023/11/07 02:37:41;;;;;;;6.07;2.53;;;;;;;7.11;71.08;95191.28;5087334;28;20036;-69
2023/11/07 02:40:10;;;;;;;4.63;2.35;;;;;;;6.92;71.11;95196.78;5108399;28;20020;-69
2023/11/07 02:42:35;;;;;;;7.53;2.78;;;;;;;6.85;71.79;95181.75;5090733;28;20035;-69
2023/11/07 02:45:02;;;;;;;5.90;2.60;;;;;;;6.99;72.39;95219.63;5088850;28;20463;-69
2023/11/07 02:47:28;;;;;;;6.47;3.25;;;;;;;6.99;72.74;95202.38;5091037;28;20046;-69
2023/11/07 02:49:54;;;;;;;8.50;2.58;;;;;;;7.28;72.08;95210.91;5108881;28;20485;-69
2023/11/07 02:52:20;;;;;;;6.32;2.10;;;;;;;7.30;71.77;95206.47;5090877;28;20050;-70
2023/11/07 02:54:46;;;;;;;4.80;2.40;;;;;;;7.31;71.30;95191.78;5107010;28;20121;-69
2023/11/07 02:57:12;;;;;;;5.18;2.13;;;;;;;7.39;72.00;95212.81;5091253;28;20035;-68
2023/11/07 02:59:38;;;;;;;5.78;2.20;;;;;;;7.21;71.43;95185.53;5091120;28;20027;-69
2023/11/07 03:02:03;;;;;;;9.60;3.10;;;;;;;7.43;71.70;95206.50;5090576;28;20028;-68
2023/11/07 03:04:29;;;;;;;4.03;2.58;;;;;;;7.42;71.58;95206.59;5105808;28;20035;-69
2023/11/07 03:06:54;;;;;;;5.72;2.47;;;;;;;7.33;71.57;95193.34;5109172;28;20562;-70
2023/11/07 03:09:20;;;;;;;6.88;2.65;;;;;;;7.43;71.96;95221.19;5107910;28;20031;-68
2023/11/07 03:11:45;;;;;;;6.55;2.40;;;;;;;7.33;71.50;95218.38;5106495;28;20455;-69
2023/11/07 03:14:11;;;;;;;8.88;3.45;;;;;;;7.25;72.39;95223.19;5089337;28;20100;-68
2023/11/07 03:16:37;;;;;;;6.45;3.03;;;;;;;6.88;72.75;95191.88;5091178;28;20046;-69
2023/11/07 03:19:07;;;;;;;6.85;3.20;;;;;;;7.08;73.01;95234.59;5074316;28;20046;-69
2023/11/07 03:21:32;;;;;;;5.95;2.83;;;;;;;7.30;72.69;95236.63;5108148;28;20497;-69
2023/11/07 03:23:58;;;;;;;9.10;2.63;;;;;;;7.25;72.54;95225.78;5106798;28;20076;-68
2023/11/07 03:26:24;;;;;;;6.45;2.70;;;;;;;7.15;72.13;95205.66;5107362;28;20409;-69
2023/11/07 03:28:50;;;;;;;6.45;2.53;;;;;;;6.92;72.02;95175.28;5108763;28;20027;-69
2023/11/07 03:31:15;;;;;;;6.78;2.70;;;;;;;6.81;72.69;95200.97;5074113;28;20023;-69
2023/11/07 03:33:40;;;;;;;7.10;2.63;;;;;;;7.10;71.55;95230.97;5088770;28;20032;-69
2023/11/07 03:36:06;;;;;;;6.63;2.40;;;;;;;6.67;71.84;95176.00;5107449;28;20028;-68
2023/11/07 03:38:32;;;;;;;8.48;3.10;;;;;;;7.01;71.51;95222.97;5108542;28;20073;-68
2023/11/07 03:40:57;;;;;;;9.25;3.83;;;;;;;6.78;72.18;95222.63;5090326;28;20035;-68
2023/11/07 03:43:23;;;;;;;13.55;5.53;;;;;;;6.74;72.35;95223.72;5090019;28;20047;-68
2023/11/07 03:45:48;;;;;;;8.55;4.38;;;;;;;6.63;72.91;95237.31;5090311;28;20031;-69
2023/11/07 03:48:14;;;;;;;10.77;5.35;;;;;;;6.54;73.85;95239.59;5107503;28;20401;-69
2023/11/07 03:50:39;;;;;;;8.32;3.83;;;;;;;6.44;73.44;95234.19;5071833;28;20038;-69
2023/11/07 03:53:05;;;;;;;10.80;4.93;;;;;;;6.14;74.80;95224.75;5090422;28;20031;-69
2023/11/07 03:55:31;;;;;;;12.02;4.35;;;;;;;6.11;75.05;95235.25;5088900;28;20027;-69
2023/11/07 03:57:57;;;;;;;7.97;4.20;;;;;;;6.14;75.20;95244.56;5090075;28;20046;-69
2023/11/07 04:00:22;;;;;;;9.73;4.75;;;;;;;5.64;76.79;95220.72;5072483;28;20036;-68
2023/11/07 04:02:48;;;;;;;16.95;7.30;;;;;;;5.99;76.18;95251.41;5089850;28;20030;-68
2023/11/07 04:05:13;;;;;;;10.35;5.63;;;;;;;5.93;75.84;95231.13;5105674;28;20032;-69
2023/11/07 04:07:39;;;;;;;11.82;5.35;;;;;;;5.87;76.20;95245.19;5089264;28;20390;-68
2023/11/07 04:10:05;;;;;;;13.60;5.50;;;;;;;6.04;75.95;95252.00;5106689;28;20031;-69
2023/11/07 04:12:32;;;;;;;8.43;4.47;;;;;;;6.05;75.41;95238.19;5106060;28;20031;-68
2023/11/07 04:14:58;;;;;;;9.40;4.18;;;;;;;6.13;74.68;95248.03;5105336;27;20027;-68
2023/11/07 04:17:24;;;;;;;9.30;3.70;;;;;;;6.11;75.24;95243.00;5089274;28;20505;-69
2023/11/07 04:19:50;;;;;;;8.38;3.50;;;;;;;5.95;75.62;95237.06;5072550;28;20038;-68
2023/11/07 04:22:16;;;;;;;5.45;3.30;;;;;;;5.81;76.15;95230.91;5106432;28;20027;-68
2023/11/07 04:24:41;;;;;;;4.43;2.67;;;;;;;6.03;77.00;95248.59;5070955;28;20040;-68
2023/11/07 04:27:07;;;;;;;7.10;3.25;;;;;;;6.10;76.11;95245.63;5072543;28;20457;-68
2023/11/07 04:29:33;;;;;;;6.00;3.00;;;;;;;5.76;76.50;95232.91;5107079;28;20039;-68
2023/11/07 04:31:58;;;;;;;9.90;4.03;;;;;;;5.88;77.31;95244.28;5106607;28;20028;-68
2023/11/07 04:34:23;;;;;;;9.60;4.18;;;;;;;5.80;77.88;95251.63;5104352;28;20039;-69
2023/11/07 04:36:53;;;;;;;11.85;4.35;;;;;;;5.77;77.73;95236.34;5090237;27;20057;-69
2023/11/07 04:39:18;;;;;;;8.15;4.60;;;;;;;5.79;77.65;95240.50;5089459;28;20036;-69
2023/11/07 04:41:44;;;;;;;13.15;4.65;;;;;;;5.84;78.06;95247.94;5090355;27;20032;-69
2023/11/07 04:44:11;;;;;;;8.63;4.20;;;;;;;6.09;77.42;95254.31;5106044;27;20063;-69
2023/11/07 04:46:38;;;;;;;6.93;3.83;;;;;;;6.11;76.61;95244.75;5105229;28;20038;-69
2023/11/07 04:49:06;;;;;;;5.47;3.30;;;;;;;5.87;76.58;95249.53;5107474;28;20493;-69
2023/11/07 04:51:32;;;;;;;8.43;4.10;;;;;;;5.83;76.47;95241.97;5073779;28;20028;-69
2023/11/07 04:53:57;;;;;;;5.55;3.53;;;;;;;5.96;77.54;95272.22;5104367;28;20548;-69
2023/11/07 04:56:23;;;;;;;7.88;3.20;;;;;;;6.17;77.05;95265.84;5088826;28;20030;-69
2023/11/07 04:58:49;;;;;;;8.90;3.63;;;;;;;6.25;76.47;95268.81;5088651;28;20036;-69
2023/11/07 05:01:15;;;;;;;5.30;2.78;;;;;;;6.15;76.35;95234.13;5106898;28;20024;-70
2023/11/07 05:03:41;;;;;;;6.35;2.45;;;;;;;6.41;75.41;95252.44;5086349;28;20036;-69
2023/11/07 05:06:07;;;;;;;4.97;1.90;;;;;;;6.68;74.15;95262.84;5071854;28;20420;-69
2023/11/07 05:08:33;;;;;;;5.32;2.33;;;;;;;6.60;74.57;95268.47;5103897;28;20030;-69
2023/11/07 05:10:58;;;;;;;4.78;2.42;;;;;;;6.65;74.89;95270.75;5085479;28;20028;-69
2023/11/07 05:13:24;;;;;;;6.22;2.60;;;;;;;6.55;74.52;95260.19;5102913;28;20046;-69
2023/11/07 05:15:49;;;;;;;8.15;2.08;;;;;;;6.63;74.10;95262.28;5086662;28;20117;-69
2023/11/07 05:18:15;;;;;;;7.05;2.53;;;;;;;6.71;73.53;95250.59;5088212;28;20035;-69
2023/11/07 05:20:42;;;;;;;5.43;2.30;;;;;;;6.69;73.69;95265.34;5105728;28;20089;-69
2023/11/07 05:23:08;;;;;;;5.47;2.15;;;;;;;6.55;72.88;95233.53;5090179;28;20063;-69
2023/11/07 05:25:35;;;;;;;4.22;1.95;;;;;;;6.95;72.51;95283.59;5105691;28;20032;-69
2023/11/07 05:28:01;;;;;;;4.47;1.83;;;;;;;6.98;72.40;95285.97;5108018;28;20458;-69
2023/11/07 05:30:27;;;;;;;7.15;1.90;;;;;;;6.99;72.52;95285.03;5105380;28;20415;-69
2023/11/07 05:32:52;;;;;;;5.53;2.30;;;;;;;6.96;72.87;95292.97;5072181;28;20024;-69
2023/11/07 05:35:18;;;;;;;6.93;2.65;;;;;;;7.02;72.80;95295.22;5106134;28;20059;-69
2023/11/07 05:37:44;;;;;;;6.13;2.50;;;;;;;7.00;72.55;95289.31;5088719;28;20464;-69
2023/11/07 05:40:28;;;;;;;4.90;2.13;;;;;;;7.02;73.21;95295.22;5106011;28;20031;-69
2023/11/07 05:42:54;;;;;;;9.48;3.30;;;;;;;7.11;73.37;95298.97;5105270;28;20032;-69
2023/11/07 05:45:20;;;;;;;11.88;3.33;;;;;;;6.74;73.40;95269.38;5088074;28;20027;-69
2023/11/07 05:47:45;;;;;;;4.93;2.42;;;;;;;7.05;73.36;95304.50;5071090;28;20028;-69
2023/11/07 05:50:11;;;;;;;5.10;2.40;;;;;;;7.06;73.22;95316.50;5088602;28;20066;-69
2023/11/07 05:52:36;;;;;;;4.95;2.10;;;;;;;7.14;72.98;95325.44;5105910;28;20043;-69
2023/11/07 05:55:10;;;;;;;4.15;1.88;;;;;;;6.99;72.12;95300.53;5104839;28;20047;-69
2023/11/07 05:57:35;;;;;;;3.83;1.88;;;;;;;7.23;71.77;95329.22;5106861;28;20073;-69
2023/11/07 06:00:01;;;;;;;3.80;2.03;;;;;;;7.19;71.44;95320.00;5101892;28;20040;-70
2023/11/07 06:02:26;;;;;;;5.82;2.50;;;;;;;7.16;71.70;95335.72;5104081;28;20429;-69
2023/11/07 06:04:53;;;;;;;4.57;2.05;;;;;;;7.06;71.69;95338.00;5103501;28;20463;-69
2023/11/07 06:07:18;;;;;;;3.85;1.90;;;;;;;7.01;72.16;95334.88;5087816;28;20035;-70
2023/11/07 06:09:44;;;;;;;3.22;1.98;;;;;;;7.18;71.68;95346.75;5103955;28;20485;-69
2023/11/07 06:12:10;;;;;;;3.08;1.55;;;;;;;6.72;71.99;95293.56;5104647;28;20020;-69
2023/11/07 06:14:36;;;;;;;3.67;2.10;;;;;;;7.10;71.48;95359.31;5087148;28;20043;-69
2023/11/07 06:17:02;;;;;;;3.55;1.90;;;;;;;7.06;71.82;95358.66;5088528;28;20023;-69
2023/11/07 06:19:28;;;;;;;4.90;1.95;;;;;;;6.95;71.49;95324.91;5095099;28;20031;-69
2023/11/07 06:21:53;;;;;;;4.50;1.98;;;;;;;7.23;71.13;95354.25;5110576;27;20028;-69
2023/11/07 06:24:18;;;;;;;5.00;2.30;;;;;;;7.12;70.92;95342.78;5091486;28;20577;-69
2023/11/07 06:26:47;;;;;;;9.13;2.50;;;;;;;7.16;70.90;95354.63;5094448;28;20020;-68
2023/11/07 06:29:13;;;;;;;3.45;1.90;;;;;;;7.27;70.95;95358.28;5091954;28;20467;-68
2023/11/07 06:31:38;;;;;;;4.63;2.00;;;;;;;7.55;70.71;95360.84;5073854;28;20036;-68
2023/11/07 06:34:04;;;;;;;5.60;2.35;;;;;;;7.52;70.38;95366.22;5107179;28;20409;-68
2023/11/07 06:36:30;;;;;;;4.45;1.92;;;;;;;7.72;71.54;95377.06;5105788;28;20059;-69
2023/11/07 06:38:56;;;;;;;4.47;2.33;;;;;;;7.54;71.84;95361.75;5076270;28;20067;-68
2023/11/07 06:41:21;;;;;;;7.70;2.13;;;;;;;7.67;71.74;95371.34;5091212;28;20059;-68
2023/11/07 06:43:48;;;;;;;21.63;14.20;;;;;;;7.78;71.30;95377.50;5074178;28;20132;-69
2023/11/07 06:46:14;;;;;;;4.15;2.20;;;;;;;7.60;71.50;95384.66;5105252;28;20115;-69
2023/11/07 06:48:45;;;;;;;5.68;2.20;;;;;;;7.72;71.75;95392.59;5110476;28;20024;-68
2023/11/07 06:51:11;;;;;;;2.95;1.67;;;;;;;7.66;71.42;95380.88;5093761;28;20131;-68
2023/11/07 06:53:36;;;;;;;4.72;2.55;;;;;;;7.78;71.78;95379.28;5127383;27;21100;-68
2023/11/07 06:56:03;;;;;;;6.03;2.42;;;;;;;7.95;70.39;95391.97;5106992;28;20031;-68
2023/11/07 06:58:29;;;;;;;5.88;2.50;;;;;;;7.91;70.81;95381.91;5091271;28;20409;-68
2023/11/07 07:00:54;;;;;;;6.00;2.15;;;;;;;7.92;71.48;95383.56;5109400;28;20034;-69
2023/11/07 07:03:25;;;;;;;5.30;2.20;;;;;;;7.84;72.21;95374.53;5091210;28;20043;-68
2023/11/07 07:05:51;;;;;;;6.07;2.47;;;;;;;7.84;72.07;95345.25;5073398;27;20479;-68
2023/11/07 07:08:17;;;;;;;4.43;2.47;;;;;;;7.83;72.25;95356.53;5107769;28;20040;-71
2023/11/07 07:10:42;;;;;;;8.55;2.70;;;;;;;8.11;72.23;95389.25;5111579;27;20027;-68
2023/11/07 07:13:08;;;;;;;5.38;2.72;;;;;;;8.23;72.13;95388.44;5109978;27;20076;-70
2023/11/07 07:15:33;;;;;;;5.60;2.40;;;;;;;8.45;71.82;95395.69;5089470;28;20401;-69
2023/11/07 07:18:04;;;;;;;6.47;2.70;;;;;;;8.69;69.91;95385.47;5091871;28;20490;-70
2023/11/07 07:20:29;;;;;;;7.53;2.97;;;;;;;8.80;69.70;95363.19;5112178;28;20051;-69
2023/11/07 07:22:55;;;;;;;8.55;3.03;;;;;;;9.05;69.47;95375.31;5093876;28;20019;-69
2023/11/07 07:25:20;;;;;;;8.35;3.75;;;;;;;9.04;69.48;95382.28;5107018;27;20035;-69
2023/11/07 07:27:47;;;;;;;4.47;2.50;;;;;;;9.37;69.47;95391.28;5088911;28;20032;-68
2023/11/07 07:30:32;;;;;;;5.45;2.50;;;;;;;9.60;68.71;95382.72;5092295;28;20044;-71
2023/11/07 07:32:58;;;;;;;6.85;2.80;;;;;;;9.97;68.12;95389.69;5077042;28;20055;-72
2023/11/07 07:35:23;;;;;;;7.43;3.38;;;;;;;10.20;66.55;95382.84;5110248;28;20401;-73
2023/11/07 07:37:51;;;;;;;6.20;3.33;;;;;;;10.09;66.07;95390.59;5111688;28;20035;-72
2023/11/07 07:40:18;;;;;;;13.93;4.15;;;;;;;9.97;65.92;95379.28;5077223;28;20023;-72
2023/11/07 07:42:47;;;;;;;5.65;2.92;;;;;;;10.48;65.97;95384.31;5109343;28;20034;-72
2023/11/07 07:45:13;;;;;;;5.28;2.90;;;;;;;10.89;65.57;95385.59;5109027;28;20058;-72
2023/11/07 07:47:38;;;;;;;7.65;2.92;;;;;;;11.15;64.72;95383.63;5091880;28;20471;-73
2023/11/07 07:50:11;;;;;;;8.05;3.90;;;;;;;11.02;64.65;95386.31;5109473;28;20032;-72
2023/11/07 07:52:43;;;;;;;9.55;4.97;;;;;;;11.12;63.16;95379.50;5109260;28;20091;-72
2023/11/07 07:55:10;;;;;;;8.30;3.75;;;;;;;11.32;63.52;95379.75;5110796;28;20048;-72
2023/11/07 07:57:38;;;;;;;15.05;5.25;;;;;;;11.44;62.73;95389.19;5109900;28;20410;-72
2023/11/07 08:00:11;;;;;;;9.90;4.82;;;;;;;11.30;62.40;95377.25;5111333;28;20035;-72
2023/11/07 08:02:38;;;;;;;10.10;5.57;;;;;;;11.39;62.90;95379.16;5111114;28;20064;-72
2023/11/07 08:05:06;;;;;;;12.75;4.72;;;;;;;11.54;61.94;95364.13;5094418;28;20398;-71
2023/11/07 08:07:33;;;;;;;13.70;4.10;;;;;;;11.59;61.74;95374.19;5110897;28;20520;-72
2023/11/07 08:09:58;;;;;;;8.77;4.53;;;;;;;11.79;61.44;95372.63;5111139;28;20070;-72
2023/11/07 08:12:24;;;;;;;11.57;5.15;;;;;;;11.89;61.56;95363.16;5093943;28;20028;-72
2023/11/07 08:14:50;;;;;;;10.18;4.28;;;;;;;12.07;60.89;95366.91;5112335;28;20092;-72
2023/11/07 08:17:15;;;;;;;12.38;4.70;;;;;;;12.16;60.60;95362.72;5110773;28;20439;-72
2023/11/07 08:19:41;;;;;;;11.00;4.35;;;;;;;12.04;61.11;95364.53;5112208;28;20066;-72
2023/11/07 08:22:08;;;;;;;9.95;4.95;;;;;;;11.84;60.77;95345.28;5093826;28;20035;-71
2023/11/07 08:24:33;;;;;;;8.73;4.22;;;;;;;11.99;60.47;95369.28;5112065;28;20485;-72
2023/11/07 08:26:59;;;;;;;8.98;4.30;;;;;;;12.00;60.15;95344.91;5110652;28;20031;-72
2023/11/07 08:29:24;;;;;;;8.73;3.88;;;;;;;12.05;59.93;95342.75;5110720;28;20035;-71
2023/11/07 08:31:50;;;;;;;12.55;4.20;;;;;;;12.40;59.44;95359.94;5111736;28;20024;-72
2023/11/07 08:34:15;;;;;;;8.52;3.72;;;;;;;12.46;59.40;95356.81;5111943;28;20088;-71
2023/11/07 08:36:41;;;;;;;8.88;4.20;;;;;;;12.35;59.10;95338.63;5111653;28;20031;-72
2023/11/07 08:39:16;;;;;;;13.18;4.70;;;;;;;12.56;59.06;95356.88;5110406;28;20089;-71
2023/11/07 08:41:44;;;;;;;13.82;4.43;;;;;;;12.73;59.16;95348.53;5110771;28;20023;-72
2023/11/07 08:44:09;;;;;;;9.70;5.03;;;;;;;12.80;59.38;95338.41;5111484;28;20063;-72
2023/11/07 08:46:35;;;;;;;8.57;4.78;;;;;;;13.33;57.92;95343.50;5111467;28;20048;-72
2023/11/07 08:49:01;;;;;;;11.18;4.70;;;;;;;13.34;57.68;95347.75;5111596;28;20027;-72
2023/11/07 08:51:28;;;;;;;9.60;4.63;;;;;;;13.19;57.98;95346.44;5111450;28;20028;-72
2023/11/07 08:53:55;;;;;;;14.13;4.32;;;;;;;13.21;57.96;95338.50;5111533;28;20027;-71
2023/11/07 08:56:24;;;;;;;8.85;4.63;;;;;;;13.28;58.11;95327.41;5111351;28;20023;-73
2023/11/07 08:58:50;;;;;;;11.23;4.32;;;;;;;13.41;58.04;95335.84;5111427;28;20024;-72
2023/11/07 09:01:16;;;;;;;9.40;4.47;;;;;;;13.50;57.59;95339.44;5110130;28;20024;-72
2023/11/07 09:03:42;;;;;;;11.80;4.43;;;;;;;13.50;57.70;95333.41;5109959;28;20031;-72
2023/11/07 09:06:08;;;;;;;9.65;3.70;;;;;;;13.48;57.81;95341.34;5111285;28;20039;-72
2023/11/07 09:08:33;;;;;;;7.68;4.05;;;;;;;13.71;57.31;95339.38;5092967;28;20030;-72
2023/11/07 09:10:59;;;;;;;9.27;4.03;;;;;;;13.65;58.06;95329.50;5110027;28;20027;-72
2023/11/07 09:13:27;;;;;;;7.65;3.97;;;;;;;13.78;57.72;95330.03;5093025;28;20023;-72
2023/11/07 09:15:53;;;;;;;8.52;4.13;;;;;;;13.89;57.80;95336.94;5093398;28;20037;-72
2023/11/07 09:18:19;;;;;;;10.25;3.90;;;;;;;14.03;57.54;95325.28;5109732;28;20456;-72
2023/11/07 09:20:45;;;;;;;8.90;3.63;;;;;;;13.83;57.50;95330.47;5109862;28;20085;-72
2023/11/07 09:23:11;;;;;;;8.50;3.90;;;;;;;13.92;57.78;95326.22;5092937;28;20027;-72
2023/11/07 09:25:36;;;;;;;11.95;4.20;;;;;;;13.92;57.56;95318.38;5093049;28;20039;-72
2023/11/07 09:28:03;;;;;;;7.30;3.33;;;;;;;14.07;57.28;95314.44;5110920;28;20379;-71
2023/11/07 09:30:29;;;;;;;9.75;3.22;;;;;;;13.93;57.38;95303.53;5111057;28;20428;-72
2023/11/07 09:32:55;;;;;;;8.27;3.40;;;;;;;13.98;57.45;95303.97;5109795;28;20554;-71
2023/11/07 09:35:21;;;;;;;8.50;3.47;;;;;;;14.16;57.31;95301.53;5110020;28;20031;-72
2023/11/07 09:37:46;;;;;;;7.28;3.28;;;;;;;14.30;56.23;95291.47;5109754;28;20032;-72
2023/11/07 09:40:18;;;;;;;8.90;3.38;;;;;;;14.31;56.06;95295.72;5109998;28;20031;-72
2023/11/07 09:42:44;;;;;;;6.63;3.42;;;;;;;14.42;56.67;95296.56;5111009;28;20168;-72
2023/11/07 09:45:18;;;;;;;8.68;3.47;;;;;;;14.42;56.33;95296.56;5092669;28;20058;-72
2023/11/07 09:47:47;;;;;;;8.18;3.50;;;;;;;14.62;55.76;95297.38;5110921;28;20435;-71
2023/11/07 09:50:13;;;;;;;8.43;2.95;;;;;;;14.65;55.04;95304.94;5109941;28;20448;-72
2023/11/07 09:52:39;;;;;;;6.35;2.83;;;;;;;14.77;54.85;95296.00;5112052;28;20023;-71
2023/11/07 09:55:08;;;;;;;7.78;2.88;;;;;;;14.92;54.20;95294.56;5096897;28;20027;-72
2023/11/07 09:57:35;;;;;;;8.30;2.70;;;;;;;14.75;54.49;95290.06;5096960;28;20024;-72
2023/11/07 10:00:02;;;;;;;7.70;2.95;;;;;;;14.90;53.91;95291.25;5113736;28;20039;-72
2023/11/07 10:02:27;;;;;;;13.88;3.40;;;;;;;15.06;53.96;95285.44;5096591;28;20339;-72
2023/11/07 10:04:53;;;;;;;7.13;2.55;;;;;;;14.96;53.40;95275.03;5113180;28;20088;-72
2023/11/07 10:07:18;;;;;;;7.03;2.58;;;;;;;15.11;52.95;95266.72;5113359;28;20042;-72
2023/11/07 10:09:44;;;;;;;9.95;4.97;;;;;;;15.25;52.80;95258.38;5113317;28;20500;-72
2023/11/07 10:12:16;;;;;;;6.57;2.60;;;;;;;15.30;52.58;95260.56;5113290;28;20036;-72
2023/11/07 10:14:41;;;;;;;10.70;2.95;;;;;;;15.34;52.37;95251.44;5113320;28;20028;-72
2023/11/07 10:17:07;;;;;;;6.82;2.33;;;;;;;15.46;51.87;95239.81;5113077;28;20051;-71
2023/11/07 10:19:32;;;;;;;6.50;2.20;;;;;;;15.53;50.81;95234.81;5111813;28;20060;-72
2023/11/07 10:22:03;;;;;;;10.27;2.55;;;;;;;15.52;51.52;95225.31;5113102;28;20467;-72
2023/11/07 10:24:42;;;;;;;5.63;2.55;;;;;;;15.57;51.29;95223.06;5095033;28;20035;-72
2023/11/07 10:27:08;;;;;;;8.35;2.40;;;;;;;15.63;51.13;95220.69;5111696;28;20032;-72
2023/11/07 10:29:34;;;;;;;7.40;2.45;;;;;;;15.70;50.50;95202.59;5111818;28;20488;-72
2023/11/07 10:32:02;;;;;;;5.97;2.10;;;;;;;15.81;49.98;95214.66;5113209;28;20024;-72
2023/11/07 10:34:28;;;;;;;7.95;2.28;;;;;;;16.07;49.12;95204.25;5112825;28;20061;-72
2023/11/07 10:36:54;;;;;;;5.50;2.10;;;;;;;16.18;48.07;95209.25;5113991;28;20019;-72
2023/11/07 10:39:24;;;;;;;5.50;1.75;;;;;;;16.37;47.62;95203.00;5112707;28;20038;-72
2023/11/07 10:41:49;;;;;;;6.45;1.77;;;;;;;16.15;46.46;95190.41;5096355;28;20027;-72
2023/11/07 10:44:15;;;;;;;5.95;1.77;;;;;;;16.41;46.14;95187.78;5095339;28;20432;-72
2023/11/07 10:46:43;;;;;;;6.95;2.30;;;;;;;16.50;46.30;95186.88;5112602;28;20565;-72
2023/11/07 10:49:10;;;;;;;6.20;1.90;;;;;;;16.44;46.02;95183.09;5095706;28;20032;-72
2023/11/07 10:51:36;;;;;;;4.47;1.38;;;;;;;16.45;44.82;95183.91;5095743;28;20057;-72
2023/11/07 10:54:01;;;;;;;4.40;1.20;;;;;;;16.63;45.04;95189.06;5112225;28;20028;-72
2023/11/07 10:56:29;;;;;;;5.55;1.70;;;;;;;16.63;43.71;95171.56;5112386;28;20409;-72
2023/11/07 10:58:59;;;;;;;3.50;1.60;;;;;;;16.62;44.25;95185.63;5095542;28;20032;-71
2023/11/07 11:01:26;;;;;;;6.85;2.08;;;;;;;16.56;43.93;95167.91;5113568;28;20409;-72
2023/11/07 11:03:51;;;;;;;5.30;1.80;;;;;;;16.49;44.43;95166.88;5094377;28;20057;-71
2023/11/07 11:06:23;;;;;;;4.32;1.27;;;;;;;16.45;44.30;95161.13;5112102;28;20023;-72
2023/11/07 11:08:48;;;;;;;7.30;1.67;;;;;;;16.62;45.90;95161.22;5112159;28;20122;-72
2023/11/07 11:11:14;;;;;;;4.22;1.50;;;;;;;16.63;43.87;95165.47;5095175;28;20027;-72
2023/11/07 11:13:41;;;;;;;4.53;1.33;;;;;;;16.76;43.34;95150.13;5078159;28;20499;-72
2023/11/07 11:16:07;;;;;;;9.65;1.50;;;;;;;16.74;43.49;95158.19;5095164;28;20024;-72
2023/11/07 11:18:45;;;;;;;5.85;1.45;;;;;;;16.62;43.29;95146.28;5113154;28;20501;-72
2023/11/07 11:21:20;;;;;;;4.90;1.33;;;;;;;16.71;43.40;95140.09;5111936;28;20023;-72
2023/11/07 11:24:07;;;;;;;4.15;1.42;;;;;;;16.90;42.78;95151.38;5111842;28;20047;-72
2023/11/07 11:26:34;;;;;;;6.82;1.58;;;;;;;16.72;43.03;95143.56;5111820;28;20066;-72
2023/11/07 11:28:59;;;;;;;3.92;1.50;;;;;;;16.67;44.18;95143.22;5094588;28;20634;-72
2023/11/07 11:31:26;;;;;;;4.97;1.55;;;;;;;16.69;44.65;95143.88;5111700;28;20028;-72
2023/11/07 11:34:29;;;;;;;7.15;2.35;;;;;;;16.75;43.90;95153.75;5113030;28;20055;-72
2023/11/07 11:36:58;;;;;;;4.90;1.48;;;;;;;16.83;43.61;95142.50;5111746;28;20043;-72